Aérodrome :
LOGIN :

S'inscrire | Disclaimer

   EN    FR    IT 

 










Légende :    VFR   VFR Marginal   IFR   IFR Intensif   IFR Très Intensif
Visi : 
Plafond : 
>= 8 km
>= 3000ft
5 à 8 km
1000 à 3000 ft
1500m à 5 km
500 à 1000 ft
800 à 1500m
200 à 500 ft
< 800m
< 200 ft
Symboles :   Orages  Brouillard  Fortes neiges  Fortes précipitations  Vent > 20 kt
SIGMETs :   Divers  Orages  Givrage  Turbulence  Onde Orograph.  Cendres Volcan.







- Altitude de l'aérodrome : 219 ft
- Code IATA : DNR
- Voir les cartes d'approche


LFRD - Dinard

DERNIER METAR :
  • 181700Z AUTO 05013KT 010V070 CAVOK 18/09 Q1025 TEMPO 04015G25KT

METARs EXPIRÉS :
  • 181630Z AUTO 04016KT 020V080 CAVOK 19/09 Q1025 TEMPO 04015G25KT
  • 181600Z AUTO 05015KT CAVOK 19/09 Q1025 TEMPO 04015G25KT
  • 181530Z AUTO 05013KT CAVOK 20/08 Q1025 TEMPO 04015G25KT
  • 181500Z AUTO 04012KT CAVOK 20/08 Q1025 TEMPO 04015G25KT

TAF TAF LFRD
Valide du 18 à 12h jusqu'au 19 à 12h UTC


181100Z 1812/1912 05014KT CAVOK
TEMPO 1812/1824 04015G25KT
ATIS : +33 2 99 16 81 50
Pas de NOTAMs connus pour ce terrain.



MET'MAP, la Météo Aéronautique d'un coup d'oeil ! - Copyright ORBIFLY Décembre 2007 - Disclaimer

ORBIFLY MET'MAP TEAM :

Programmation & Développement : Alexandra Zaïnal
Conception & Développement : Baudouin d'Aumeries
Co-Programmation & Développement : Marc-Olivier Méhu
Soutien technique & logistique : Manuel Goepfert

Contact : metmap@orbifly.com




SOURCES & CREDITS :

   NOAA